createdAt,value
2017-11-26T00:00:00.356Z,1010.23
2017-11-26T00:01:00.334Z,1010.21
2017-11-26T00:02:00.310Z,1010.21
2017-11-26T00:03:00.292Z,1010.15
2017-11-26T00:04:00.271Z,1010.19
2017-11-26T00:05:00.241Z,1010.22
2017-11-26T00:06:00.216Z,1010.25
2017-11-26T00:07:00.192Z,1010.25
2017-11-26T00:08:00.170Z,1010.25
2017-11-26T00:09:00.146Z,1010.24
2017-11-26T00:10:00.121Z,1010.22
2017-11-26T00:11:00.099Z,1010.29
2017-11-26T00:12:00.076Z,1010.23
2017-11-26T00:13:00.052Z,1010.25
2017-11-26T00:14:00.031Z,1010.23
2017-11-26T00:15:00.035Z,1010.27
2017-11-26T00:15:59.982Z,1010.30
2017-11-26T00:16:59.960Z,1010.27
2017-11-26T00:17:59.940Z,1010.26
2017-11-26T00:18:59.913Z,1010.28
2017-11-26T00:19:59.889Z,1010.29
2017-11-26T00:20:59.872Z,1010.35
2017-11-26T00:21:59.842Z,1010.34
2017-11-26T00:22:59.819Z,1010.34
2017-11-26T00:23:59.798Z,1010.33
2017-11-26T00:24:59.777Z,1010.35
2017-11-26T00:25:59.757Z,1010.37
2017-11-26T00:26:59.733Z,1010.35
2017-11-26T00:27:59.735Z,1010.35
2017-11-26T00:28:59.679Z,1010.34
2017-11-26T00:29:59.665Z,1010.35
2017-11-26T00:30:59.745Z,1010.32
2017-11-26T00:31:59.618Z,1010.34
2017-11-26T00:32:59.599Z,1010.31
2017-11-26T00:33:59.567Z,1010.31
2017-11-26T00:34:59.618Z,1010.35
2017-11-26T00:35:59.518Z,1010.40
2017-11-26T00:36:59.580Z,1010.27
2017-11-26T00:37:59.471Z,1010.32
2017-11-26T00:38:59.451Z,1010.38
2017-11-26T00:39:59.433Z,1010.36
2017-11-26T00:40:59.521Z,1010.37
2017-11-26T00:41:59.386Z,1010.37
2017-11-26T00:42:59.356Z,1010.37
2017-11-26T00:43:59.336Z,1010.38
2017-11-26T00:44:59.338Z,1010.33
2017-11-26T00:45:59.287Z,1010.36
2017-11-26T00:46:59.321Z,1010.39
2017-11-26T00:47:59.237Z,1010.39
2017-11-26T00:48:59.215Z,1010.40
2017-11-26T00:49:59.191Z,1010.40
2017-11-26T00:50:59.168Z,1010.42
2017-11-26T00:51:59.148Z,1010.44
2017-11-26T00:52:59.121Z,1010.46
2017-11-26T00:53:59.099Z,1010.44
2017-11-26T00:54:59.074Z,1010.43
2017-11-26T00:55:59.053Z,1010.45
2017-11-26T00:56:59.027Z,1010.45
2017-11-26T00:57:59.032Z,1010.44
2017-11-26T00:58:58.983Z,1010.44
2017-11-26T00:59:58.992Z,1010.41
2017-11-26T01:00:58.936Z,1010.43
2017-11-26T01:01:58.913Z,1010.37
2017-11-26T01:02:58.888Z,1010.35
2017-11-26T01:03:58.879Z,1010.32
2017-11-26T01:04:58.845Z,1010.34
2017-11-26T01:05:58.817Z,1010.37
2017-11-26T01:06:58.803Z,1010.35
2017-11-26T01:07:58.782Z,1010.34
2017-11-26T01:08:58.750Z,1010.33
2017-11-26T01:09:58.723Z,1010.30
2017-11-26T01:10:58.705Z,1010.28
2017-11-26T01:11:58.683Z,1010.31
2017-11-26T01:12:58.656Z,1010.33
2017-11-26T01:13:58.636Z,1010.30
2017-11-26T01:14:58.612Z,1010.36
2017-11-26T01:15:58.587Z,1010.36
2017-11-26T01:16:58.564Z,1010.37
2017-11-26T01:17:58.558Z,1010.39
2017-11-26T01:18:58.526Z,1010.37
2017-11-26T01:19:58.491Z,1010.41
2017-11-26T01:20:58.474Z,1010.46
2017-11-26T01:21:58.442Z,1010.49
2017-11-26T01:22:58.423Z,1010.54
2017-11-26T01:23:58.407Z,1010.54
2017-11-26T01:24:58.382Z,1010.49
2017-11-26T01:25:58.349Z,1010.54
2017-11-26T01:26:58.329Z,1010.52
2017-11-26T01:27:58.306Z,1010.49
2017-11-26T01:28:58.279Z,1010.49
2017-11-26T01:29:58.258Z,1010.48
2017-11-26T01:30:58.242Z,1010.51
2017-11-26T01:31:58.211Z,1010.45
2017-11-26T01:32:58.189Z,1010.42
2017-11-26T01:33:58.161Z,1010.47
2017-11-26T01:34:58.138Z,1010.51
2017-11-26T01:35:58.122Z,1010.51
2017-11-26T01:36:58.091Z,1010.50
2017-11-26T01:37:58.068Z,1010.48
2017-11-26T01:38:58.043Z,1010.47
2017-11-26T01:39:58.072Z,1010.52
2017-11-26T01:40:57.997Z,1010.53
2017-11-26T01:41:57.996Z,1010.50
2017-11-26T01:42:57.976Z,1010.55
2017-11-26T01:43:57.926Z,1010.52
2017-11-26T01:44:57.900Z,1010.54
2017-11-26T01:45:57.978Z,1010.50
2017-11-26T01:46:57.875Z,1010.54
2017-11-26T01:47:57.831Z,1010.56
2017-11-26T01:48:57.805Z,1010.58
2017-11-26T01:49:57.780Z,1010.55
2017-11-26T01:50:57.762Z,1010.52
2017-11-26T01:51:57.807Z,1010.52
2017-11-26T01:52:57.712Z,1010.50
2017-11-26T01:53:57.685Z,1010.51
2017-11-26T01:54:57.665Z,1010.51
2017-11-26T01:55:57.704Z,1010.53
2017-11-26T01:56:57.614Z,1010.56
2017-11-26T01:57:57.591Z,1010.54
2017-11-26T01:58:57.567Z,1010.50
2017-11-26T01:59:57.542Z,1010.53
2017-11-26T02:00:57.521Z,1010.55
2017-11-26T02:01:57.499Z,1010.58
2017-11-26T02:02:57.481Z,1010.53
2017-11-26T02:03:57.445Z,1010.56
2017-11-26T02:04:57.423Z,1010.60
2017-11-26T02:05:57.398Z,1010.58
2017-11-26T02:06:57.378Z,1010.55
2017-11-26T02:07:57.352Z,1010.61
2017-11-26T02:08:57.332Z,1010.69
2017-11-26T02:09:57.302Z,1010.67
2017-11-26T02:10:57.284Z,1010.66
2017-11-26T02:11:57.255Z,1010.64
2017-11-26T02:12:57.233Z,1010.64
2017-11-26T02:13:57.217Z,1010.66
2017-11-26T02:14:57.183Z,1010.65
2017-11-26T02:15:57.167Z,1010.66
2017-11-26T02:16:57.132Z,1010.64
2017-11-26T02:17:57.132Z,1010.72
2017-11-26T02:18:57.088Z,1010.70
2017-11-26T02:19:57.063Z,1010.65
2017-11-26T02:20:57.041Z,1010.67
2017-11-26T02:21:57.029Z,1010.76
2017-11-26T02:22:56.993Z,1010.71
2017-11-26T02:23:56.971Z,1010.71
2017-11-26T02:24:56.950Z,1010.64
2017-11-26T02:25:56.921Z,1010.62
2017-11-26T02:26:56.896Z,1010.57
2017-11-26T02:27:56.876Z,1010.60
2017-11-26T02:28:56.849Z,1010.61
2017-11-26T02:29:56.825Z,1010.63
2017-11-26T02:30:56.799Z,1010.61
2017-11-26T02:31:56.780Z,1010.59
2017-11-26T02:32:56.755Z,1010.58
2017-11-26T02:33:56.755Z,1010.58
2017-11-26T02:34:56.709Z,1010.59
2017-11-26T02:35:56.681Z,1010.63
2017-11-26T02:36:56.667Z,1010.68
2017-11-26T02:37:56.665Z,1010.66
2017-11-26T02:38:56.613Z,1010.69
2017-11-26T02:39:56.587Z,1010.65
2017-11-26T02:40:56.577Z,1010.68
2017-11-26T02:41:56.540Z,1010.67
2017-11-26T02:42:56.526Z,1010.62
2017-11-26T02:43:56.493Z,1010.59
2017-11-26T02:44:56.470Z,1010.63
2017-11-26T02:45:56.447Z,1010.68
2017-11-26T02:46:56.430Z,1010.66
2017-11-26T02:47:56.396Z,1010.63
2017-11-26T02:48:56.378Z,1010.61
2017-11-26T02:49:56.358Z,1010.60
2017-11-26T02:50:56.331Z,1010.60
2017-11-26T02:51:56.326Z,1010.62
2017-11-26T02:52:56.280Z,1010.63
2017-11-26T02:53:56.257Z,1010.64
2017-11-26T02:54:56.242Z,1010.63
2017-11-26T02:55:56.207Z,1010.69
2017-11-26T02:56:56.205Z,1010.69
2017-11-26T02:57:56.160Z,1010.72
2017-11-26T02:58:56.144Z,1010.71
2017-11-26T02:59:56.115Z,1010.76
2017-11-26T03:00:56.120Z,1010.71
2017-11-26T03:01:56.068Z,1010.71
2017-11-26T03:02:56.172Z,1010.76
2017-11-26T03:03:56.015Z,1010.76
2017-11-26T03:04:55.995Z,1010.75
2017-11-26T03:05:55.970Z,1010.78
2017-11-26T03:06:56.000Z,1010.77
2017-11-26T03:07:55.932Z,1010.71
2017-11-26T03:08:55.899Z,1010.78
2017-11-26T03:09:55.873Z,1010.71
2017-11-26T03:10:55.853Z,1010.76
2017-11-26T03:11:55.829Z,1010.73
2017-11-26T03:12:55.803Z,1010.73
2017-11-26T03:13:55.785Z,1010.73
2017-11-26T03:14:55.755Z,1010.72
2017-11-26T03:15:55.732Z,1010.68
2017-11-26T03:16:55.717Z,1010.70
2017-11-26T03:17:55.682Z,1010.72
2017-11-26T03:18:55.663Z,1010.75
2017-11-26T03:19:55.637Z,1010.78
2017-11-26T03:20:55.613Z,1010.77
2017-11-26T03:21:55.587Z,1010.78
2017-11-26T03:22:55.564Z,1010.77
2017-11-26T03:23:55.542Z,1010.82
2017-11-26T03:24:55.541Z,1010.83
2017-11-26T03:25:55.505Z,1010.77
2017-11-26T03:26:55.472Z,1010.75
2017-11-26T03:27:55.445Z,1010.82
2017-11-26T03:28:55.422Z,1010.82
2017-11-26T03:29:55.400Z,1010.80
2017-11-26T03:30:55.376Z,1010.92
2017-11-26T03:31:55.352Z,1010.87
2017-11-26T03:32:55.330Z,1010.93
2017-11-26T03:33:55.302Z,1010.94
2017-11-26T03:34:55.284Z,1010.85
2017-11-26T03:35:55.260Z,1010.92
2017-11-26T03:36:55.232Z,1010.88
2017-11-26T03:37:55.217Z,1010.90
2017-11-26T03:38:55.183Z,1010.88
2017-11-26T03:39:55.170Z,1010.87
2017-11-26T03:40:55.139Z,1010.84
2017-11-26T03:41:55.113Z,1010.84
2017-11-26T03:42:55.089Z,1010.91
2017-11-26T03:43:55.069Z,1010.88
2017-11-26T03:44:55.055Z,1010.84
2017-11-26T03:45:55.019Z,1010.89
2017-11-26T03:46:54.998Z,1010.87
2017-11-26T03:47:54.979Z,1010.83
2017-11-26T03:48:54.956Z,1010.85
2017-11-26T03:49:54.924Z,1010.79
2017-11-26T03:50:54.900Z,1010.77
2017-11-26T03:51:54.918Z,1010.74
2017-11-26T03:52:54.859Z,1010.79
2017-11-26T03:53:54.831Z,1010.83
2017-11-26T03:54:54.807Z,1010.79
2017-11-26T03:55:54.787Z,1010.78
2017-11-26T03:56:54.756Z,1010.77
2017-11-26T03:57:54.749Z,1010.82
2017-11-26T03:58:54.709Z,1010.75
2017-11-26T03:59:54.695Z,1010.78
2017-11-26T04:00:54.670Z,1010.82
2017-11-26T04:01:54.665Z,1010.81
2017-11-26T04:02:54.615Z,1010.78
2017-11-26T04:03:54.596Z,1010.82
2017-11-26T04:04:54.567Z,1010.79
2017-11-26T04:05:54.544Z,1010.85
2017-11-26T04:06:54.520Z,1010.82
2017-11-26T04:07:54.506Z,1010.74
2017-11-26T04:08:54.475Z,1010.79
2017-11-26T04:09:54.450Z,1010.81
2017-11-26T04:10:54.424Z,1010.78
2017-11-26T04:11:54.495Z,1010.80
2017-11-26T04:12:54.379Z,1010.79
2017-11-26T04:13:54.357Z,1010.80
2017-11-26T04:14:54.333Z,1010.76
2017-11-26T04:15:54.312Z,1010.75
2017-11-26T04:16:54.290Z,1010.76
2017-11-26T04:17:54.401Z,1010.72
2017-11-26T04:18:54.244Z,1010.70
2017-11-26T04:19:54.213Z,1010.75
2017-11-26T04:20:54.192Z,1010.79
2017-11-26T04:21:54.164Z,1010.72
2017-11-26T04:22:54.147Z,1010.73
2017-11-26T04:23:54.119Z,1010.72
2017-11-26T04:24:54.096Z,1010.82
2017-11-26T04:25:54.072Z,1010.74
2017-11-26T04:26:54.046Z,1010.74
2017-11-26T04:27:54.045Z,1010.77
2017-11-26T04:28:54.003Z,1010.82
2017-11-26T04:29:53.974Z,1010.84
2017-11-26T04:30:53.951Z,1010.77
2017-11-26T04:31:53.933Z,1010.76
2017-11-26T04:32:53.904Z,1010.76
2017-11-26T04:33:53.882Z,1010.78
2017-11-26T04:34:53.858Z,1010.73
2017-11-26T04:35:53.834Z,1010.66
2017-11-26T04:36:53.829Z,1010.68
2017-11-26T04:37:53.785Z,1010.72
2017-11-26T04:38:53.761Z,1010.65
2017-11-26T04:39:53.742Z,1010.71
2017-11-26T04:40:53.717Z,1010.64
2017-11-26T04:41:53.690Z,1010.66
2017-11-26T04:42:53.665Z,1010.66
2017-11-26T04:43:53.648Z,1010.63
2017-11-26T04:44:53.619Z,1010.65
2017-11-26T04:45:53.600Z,1010.61
2017-11-26T04:46:53.569Z,1010.60
2017-11-26T04:47:53.543Z,1010.63
2017-11-26T04:48:53.521Z,1010.64
2017-11-26T04:49:53.502Z,1010.63
2017-11-26T04:50:53.475Z,1010.65
2017-11-26T04:51:53.450Z,1010.62
2017-11-26T04:52:53.438Z,1010.61
2017-11-26T04:53:53.401Z,1010.63
2017-11-26T04:54:53.381Z,1010.51
2017-11-26T04:55:53.356Z,1010.57
2017-11-26T04:56:53.329Z,1010.61
2017-11-26T04:57:53.307Z,1010.62
2017-11-26T04:58:53.283Z,1010.63
2017-11-26T04:59:53.259Z,1010.57
2017-11-26T05:00:53.236Z,1010.56
2017-11-26T05:01:53.216Z,1010.56
2017-11-26T05:02:53.196Z,1010.59
2017-11-26T05:03:53.162Z,1010.54
2017-11-26T05:04:53.138Z,1010.65
2017-11-26T05:05:53.118Z,1010.68
2017-11-26T05:06:53.119Z,1010.61
2017-11-26T05:07:53.077Z,1010.58
2017-11-26T05:08:53.045Z,1010.62
2017-11-26T05:09:53.027Z,1010.58
2017-11-26T05:10:52.995Z,1010.61
2017-11-26T05:11:52.969Z,1010.55
2017-11-26T05:12:52.954Z,1010.56
2017-11-26T05:13:52.925Z,1010.55
2017-11-26T05:14:52.897Z,1010.53
2017-11-26T05:15:52.877Z,1010.51
2017-11-26T05:16:52.900Z,1010.52
2017-11-26T05:17:52.829Z,1010.56
2017-11-26T05:18:52.821Z,1010.55
2017-11-26T05:19:52.790Z,1010.60
2017-11-26T05:20:52.808Z,1010.49
2017-11-26T05:21:52.729Z,1010.54
2017-11-26T05:22:52.840Z,1010.56
2017-11-26T05:23:52.685Z,1010.52
2017-11-26T05:24:52.658Z,1010.53
2017-11-26T05:25:52.633Z,1010.53
2017-11-26T05:26:52.616Z,1010.48
2017-11-26T05:27:52.595Z,1010.51
2017-11-26T05:28:52.562Z,1010.46
2017-11-26T05:29:52.537Z,1010.51
2017-11-26T05:30:52.515Z,1010.51
2017-11-26T05:31:52.492Z,1010.55
2017-11-26T05:32:52.474Z,1010.52
2017-11-26T05:33:52.445Z,1010.50
2017-11-26T05:34:52.417Z,1010.56
2017-11-26T05:35:52.401Z,1010.56
2017-11-26T05:36:52.377Z,1010.54
2017-11-26T05:37:52.344Z,1010.64
2017-11-26T05:38:52.328Z,1010.48
2017-11-26T05:39:52.297Z,1010.61
2017-11-26T05:40:52.281Z,1010.56
2017-11-26T05:41:52.250Z,1010.53
2017-11-26T05:42:52.225Z,1010.48
2017-11-26T05:43:52.217Z,1010.53
2017-11-26T05:44:52.175Z,1010.51
2017-11-26T05:45:52.152Z,1010.49
2017-11-26T05:46:52.126Z,1010.53
2017-11-26T05:47:52.103Z,1010.55
2017-11-26T05:48:52.080Z,1010.52
2017-11-26T05:49:52.057Z,1010.53
2017-11-26T05:50:52.031Z,1010.52
2017-11-26T05:51:52.005Z,1010.55
2017-11-26T05:52:51.981Z,1010.55
2017-11-26T05:53:51.958Z,1010.57
2017-11-26T05:54:51.936Z,1010.60
2017-11-26T05:55:51.908Z,1010.56
2017-11-26T05:56:51.884Z,1010.59
2017-11-26T05:57:51.876Z,1010.61
2017-11-26T05:58:51.844Z,1010.62
2017-11-26T05:59:51.812Z,1010.62
2017-11-26T06:00:51.789Z,1010.67
2017-11-26T06:01:51.759Z,1010.66
2017-11-26T06:02:51.739Z,1010.67
2017-11-26T06:03:51.717Z,1010.70
2017-11-26T06:04:51.688Z,1010.66
2017-11-26T06:05:51.661Z,1010.64
2017-11-26T06:06:51.639Z,1010.62
2017-11-26T06:07:51.617Z,1010.66
2017-11-26T06:08:51.592Z,1010.62
2017-11-26T06:09:51.569Z,1010.75
2017-11-26T06:10:51.546Z,1010.66
2017-11-26T06:11:51.522Z,1010.71
2017-11-26T06:12:51.496Z,1010.71
2017-11-26T06:13:51.488Z,1010.73
2017-11-26T06:14:51.448Z,1010.71
2017-11-26T06:15:51.421Z,1010.79
2017-11-26T06:16:51.402Z,1010.80
2017-11-26T06:17:51.446Z,1010.72
2017-11-26T06:18:51.348Z,1010.80
2017-11-26T06:19:51.324Z,1010.80
2017-11-26T06:20:51.301Z,1010.84
2017-11-26T06:21:51.275Z,1010.82
2017-11-26T06:22:51.250Z,1010.80
2017-11-26T06:23:51.311Z,1010.84
2017-11-26T06:24:51.205Z,1010.84
2017-11-26T06:25:51.177Z,1010.85
2017-11-26T06:26:51.154Z,1010.83
2017-11-26T06:27:51.242Z,1010.82
2017-11-26T06:28:51.112Z,1010.81
2017-11-26T06:29:51.084Z,1010.91
2017-11-26T06:30:51.057Z,1010.88
2017-11-26T06:31:51.033Z,1010.88
2017-11-26T06:32:51.009Z,1010.89
2017-11-26T06:33:50.985Z,1010.90
2017-11-26T06:34:50.962Z,1010.94
2017-11-26T06:35:50.935Z,1010.87
2017-11-26T06:36:50.912Z,1010.84
2017-11-26T06:37:50.887Z,1010.90
2017-11-26T06:38:50.863Z,1010.87
2017-11-26T06:39:50.847Z,1010.90
2017-11-26T06:40:50.814Z,1010.85
2017-11-26T06:41:50.792Z,1010.91
2017-11-26T06:42:50.767Z,1010.92
2017-11-26T06:43:50.765Z,1010.95
2017-11-26T06:44:50.721Z,1010.94
2017-11-26T06:45:50.694Z,1010.94
2017-11-26T06:46:50.681Z,1010.91
2017-11-26T06:47:50.661Z,1010.96
2017-11-26T06:48:50.623Z,1010.99
2017-11-26T06:49:50.601Z,1011.06
2017-11-26T06:50:50.572Z,1011.00
2017-11-26T06:51:50.550Z,1011.03
2017-11-26T06:52:50.526Z,1011.07
2017-11-26T06:53:50.500Z,1011.08
2017-11-26T06:54:50.480Z,1011.05
2017-11-26T06:55:50.452Z,1011.10
2017-11-26T06:56:50.429Z,1011.12
2017-11-26T06:57:50.405Z,1011.05
2017-11-26T06:58:50.381Z,1011.07
2017-11-26T06:59:50.360Z,1011.02
2017-11-26T07:00:50.333Z,1011.02
2017-11-26T07:01:50.314Z,1010.98
2017-11-26T07:02:50.284Z,1011.02
2017-11-26T07:03:50.261Z,1011.07
2017-11-26T07:04:50.237Z,1011.15
2017-11-26T07:05:50.215Z,1011.18
2017-11-26T07:06:50.188Z,1011.23
2017-11-26T07:07:50.161Z,1011.17
2017-11-26T07:08:50.140Z,1011.19
2017-11-26T07:09:50.119Z,1011.21
2017-11-26T07:10:50.093Z,1011.19
2017-11-26T07:11:50.070Z,1011.22
2017-11-26T07:12:50.049Z,1011.22
2017-11-26T07:13:50.020Z,1011.21
2017-11-26T07:14:49.997Z,1011.27
2017-11-26T07:15:49.972Z,1011.29
2017-11-26T07:16:49.950Z,1011.31
2017-11-26T07:17:49.926Z,1011.33
2017-11-26T07:18:49.927Z,1011.25
2017-11-26T07:19:49.884Z,1011.25
2017-11-26T07:20:49.857Z,1011.33
2017-11-26T07:21:49.827Z,1011.32
2017-11-26T07:22:49.834Z,1011.35
2017-11-26T07:23:49.781Z,1011.35
2017-11-26T07:24:49.796Z,1011.39
2017-11-26T07:25:49.733Z,1011.45
2017-11-26T07:26:49.707Z,1011.48
2017-11-26T07:27:49.693Z,1011.42
2017-11-26T07:28:49.759Z,1011.40
2017-11-26T07:29:49.639Z,1011.41
2017-11-26T07:30:49.629Z,1011.45
2017-11-26T07:31:49.590Z,1011.32
2017-11-26T07:32:49.663Z,1011.43
2017-11-26T07:33:49.550Z,1011.45
2017-11-26T07:34:49.536Z,1011.41
2017-11-26T07:35:49.495Z,1011.44
2017-11-26T07:36:49.473Z,1011.46
2017-11-26T07:37:49.465Z,1011.45
2017-11-26T07:38:49.548Z,1011.52
2017-11-26T07:39:49.399Z,1011.49
2017-11-26T07:40:49.376Z,1011.50
2017-11-26T07:41:49.353Z,1011.45
2017-11-26T07:42:49.328Z,1011.49
2017-11-26T07:43:49.314Z,1011.47
2017-11-26T07:44:49.294Z,1011.52
2017-11-26T07:45:49.258Z,1011.54
2017-11-26T07:46:49.237Z,1011.53
2017-11-26T07:47:49.224Z,1011.57
2017-11-26T07:48:49.187Z,1011.51
2017-11-26T07:49:49.164Z,1011.54
2017-11-26T07:50:49.144Z,1011.48
2017-11-26T07:51:49.117Z,1011.54
2017-11-26T07:52:49.103Z,1011.57
2017-11-26T07:53:49.072Z,1011.52
2017-11-26T07:54:49.044Z,1011.49
2017-11-26T07:55:49.022Z,1011.58
2017-11-26T07:56:49.000Z,1011.59
2017-11-26T07:57:48.990Z,1011.60
2017-11-26T07:58:48.951Z,1011.60
2017-11-26T07:59:48.933Z,1011.62
2017-11-26T08:00:48.903Z,1011.70
2017-11-26T08:01:48.882Z,1011.67
2017-11-26T08:02:48.854Z,1011.72
2017-11-26T08:03:48.841Z,1011.69
2017-11-26T08:04:48.809Z,1011.69
2017-11-26T08:05:48.785Z,1011.71
2017-11-26T08:06:48.759Z,1011.70
2017-11-26T08:07:48.759Z,1011.69
2017-11-26T08:08:48.715Z,1011.75
2017-11-26T08:09:48.693Z,1011.75
2017-11-26T08:10:48.678Z,1011.72
2017-11-26T08:11:48.645Z,1011.71
2017-11-26T08:12:48.621Z,1011.72
2017-11-26T08:13:48.600Z,1011.76
2017-11-26T08:14:48.612Z,1011.75
2017-11-26T08:15:48.551Z,1011.82
2017-11-26T08:16:48.542Z,1011.82
2017-11-26T08:17:48.505Z,1011.84
2017-11-26T08:18:48.482Z,1011.85
2017-11-26T08:19:48.456Z,1011.89
2017-11-26T08:20:48.443Z,1011.88
2017-11-26T08:21:48.411Z,1011.90
2017-11-26T08:22:48.387Z,1011.91
2017-11-26T08:23:48.367Z,1011.92
2017-11-26T08:24:48.341Z,1011.86
2017-11-26T08:25:48.318Z,1011.89
2017-11-26T08:26:48.296Z,1011.85
2017-11-26T08:27:48.294Z,1011.92
2017-11-26T08:28:48.254Z,1011.85
2017-11-26T08:29:48.244Z,1011.89
2017-11-26T08:30:48.216Z,1011.84
2017-11-26T08:31:48.179Z,1011.82
2017-11-26T08:32:48.157Z,1011.76
2017-11-26T08:33:48.145Z,1011.82
2017-11-26T08:34:48.110Z,1011.79
2017-11-26T08:35:48.086Z,1011.84
2017-11-26T08:36:48.111Z,1011.77
2017-11-26T08:37:48.039Z,1011.73
2017-11-26T08:38:48.019Z,1011.79
2017-11-26T08:39:48.018Z,1011.80
2017-11-26T08:40:47.969Z,1011.75
2017-11-26T08:41:47.947Z,1011.78
2017-11-26T08:42:47.926Z,1011.85
2017-11-26T08:43:47.955Z,1011.86
2017-11-26T08:44:47.879Z,1011.83
2017-11-26T08:45:47.856Z,1011.89
2017-11-26T08:46:47.836Z,1011.86
2017-11-26T08:47:47.823Z,1011.88
2017-11-26T08:48:47.788Z,1011.84
2017-11-26T08:49:47.778Z,1011.92
2017-11-26T08:50:47.745Z,1011.91
2017-11-26T08:51:47.719Z,1011.94
2017-11-26T08:52:47.706Z,1011.89
2017-11-26T08:53:47.690Z,1011.96
2017-11-26T08:54:47.652Z,1011.92
2017-11-26T08:55:47.630Z,1011.97
2017-11-26T08:56:47.605Z,1011.98
2017-11-26T08:57:47.581Z,1011.90
2017-11-26T08:58:47.563Z,1012.00
2017-11-26T08:59:47.543Z,1011.94
2017-11-26T09:00:47.520Z,1011.97
2017-11-26T09:01:47.501Z,1011.95
2017-11-26T09:02:47.470Z,1011.98
2017-11-26T09:03:47.446Z,1012.06
2017-11-26T09:04:47.433Z,1012.05
2017-11-26T09:05:47.409Z,1012.12
2017-11-26T09:06:47.383Z,1012.18
2017-11-26T09:07:47.360Z,1012.16
2017-11-26T09:08:47.341Z,1012.16
2017-11-26T09:09:47.314Z,1012.16
2017-11-26T09:10:47.295Z,1012.18
2017-11-26T09:11:47.273Z,1012.20
2017-11-26T09:12:47.256Z,1012.18
2017-11-26T09:13:47.230Z,1012.20
2017-11-26T09:14:47.205Z,1012.20
2017-11-26T09:15:47.188Z,1012.15
2017-11-26T09:16:47.161Z,1012.19
2017-11-26T09:17:47.139Z,1012.15
2017-11-26T09:18:47.121Z,1012.17
2017-11-26T09:19:47.094Z,1012.23
2017-11-26T09:20:47.071Z,1012.19
2017-11-26T09:21:47.074Z,1012.17
2017-11-26T09:22:47.037Z,1012.21
2017-11-26T09:23:47.008Z,1012.21
2017-11-26T09:24:46.996Z,1012.27
2017-11-26T09:25:46.961Z,1012.23
2017-11-26T09:26:46.949Z,1012.29
2017-11-26T09:27:46.924Z,1012.25
2017-11-26T09:28:46.907Z,1012.17
2017-11-26T09:29:46.889Z,1012.14
2017-11-26T09:30:46.852Z,1012.30
2017-11-26T09:31:46.840Z,1012.22
2017-11-26T09:32:46.820Z,1012.23
2017-11-26T09:33:46.792Z,1012.28
2017-11-26T09:34:46.768Z,1012.21
2017-11-26T09:35:46.749Z,1012.29
2017-11-26T09:36:46.751Z,1012.30
2017-11-26T09:37:46.702Z,1012.34
2017-11-26T09:38:46.682Z,1012.28
2017-11-26T09:39:46.667Z,1012.35
2017-11-26T09:40:46.647Z,1012.32
2017-11-26T09:41:46.618Z,1012.27
2017-11-26T09:42:46.599Z,1012.34
2017-11-26T09:43:46.573Z,1012.33
2017-11-26T09:44:46.555Z,1012.32
2017-11-26T09:45:46.528Z,1012.33
2017-11-26T09:46:46.513Z,1012.38
2017-11-26T09:47:46.493Z,1012.40
2017-11-26T09:48:46.537Z,1012.40
2017-11-26T09:49:46.441Z,1012.39
2017-11-26T09:50:46.443Z,1012.41
2017-11-26T09:51:46.400Z,1012.46
2017-11-26T09:52:46.374Z,1012.47
2017-11-26T09:53:46.358Z,1012.37
2017-11-26T09:54:46.383Z,1012.45
2017-11-26T09:55:46.321Z,1012.51
2017-11-26T09:56:46.289Z,1012.48
2017-11-26T09:57:46.266Z,1012.42
2017-11-26T09:58:46.246Z,1012.40
2017-11-26T09:59:46.230Z,1012.33
2017-11-26T10:00:46.249Z,1012.38
2017-11-26T10:01:46.185Z,1012.33
2017-11-26T10:02:46.164Z,1012.33
2017-11-26T10:03:46.145Z,1012.39
2017-11-26T10:04:46.139Z,1012.33
2017-11-26T10:05:46.097Z,1012.35
2017-11-26T10:06:46.075Z,1012.32
2017-11-26T10:07:46.056Z,1012.36
2017-11-26T10:08:46.035Z,1012.40
2017-11-26T10:09:46.019Z,1012.39
2017-11-26T10:10:46.021Z,1012.38
2017-11-26T10:11:45.970Z,1012.39
2017-11-26T10:12:45.952Z,1012.39
2017-11-26T10:13:45.927Z,1012.37
2017-11-26T10:14:46.014Z,1012.41
2017-11-26T10:15:45.884Z,1012.41
2017-11-26T10:16:45.871Z,1012.47
2017-11-26T10:17:45.842Z,1012.46
2017-11-26T10:18:45.820Z,1012.45
2017-11-26T10:19:45.806Z,1012.43
2017-11-26T10:20:45.789Z,1012.42
2017-11-26T10:21:45.762Z,1012.44
2017-11-26T10:22:45.732Z,1012.36
2017-11-26T10:23:45.719Z,1012.39
2017-11-26T10:24:45.716Z,1012.38
2017-11-26T10:25:45.678Z,1012.37
2017-11-26T10:26:45.770Z,1012.39
2017-11-26T10:27:45.633Z,1012.39
2017-11-26T10:28:45.617Z,1012.36
2017-11-26T10:29:45.585Z,1012.40
2017-11-26T10:30:45.564Z,1012.38
2017-11-26T10:31:45.545Z,1012.39
2017-11-26T10:32:45.545Z,1012.38
2017-11-26T10:33:45.509Z,1012.42
2017-11-26T10:34:45.480Z,1012.40
2017-11-26T10:35:45.466Z,1012.39
2017-11-26T10:36:45.441Z,1012.40
2017-11-26T10:37:45.435Z,1012.51
2017-11-26T10:38:45.390Z,1012.44
2017-11-26T10:39:45.370Z,1012.42
2017-11-26T10:40:45.351Z,1012.49
2017-11-26T10:41:45.326Z,1012.39
2017-11-26T10:42:45.302Z,1012.50
2017-11-26T10:43:45.289Z,1012.47
2017-11-26T10:44:45.260Z,1012.49
2017-11-26T10:45:45.240Z,1012.48
2017-11-26T10:46:45.222Z,1012.44
2017-11-26T10:47:45.197Z,1012.45
2017-11-26T10:48:45.185Z,1012.48
2017-11-26T10:49:45.165Z,1012.51
2017-11-26T10:50:45.143Z,1012.50
2017-11-26T10:51:45.116Z,1012.46
2017-11-26T10:52:45.099Z,1012.54
2017-11-26T10:53:45.083Z,1012.48
2017-11-26T10:54:45.048Z,1012.51
2017-11-26T10:55:45.032Z,1012.43
2017-11-26T10:56:45.010Z,1012.51
2017-11-26T10:57:44.985Z,1012.50
2017-11-26T10:58:44.966Z,1012.49
2017-11-26T10:59:44.954Z,1012.55
2017-11-26T11:00:44.928Z,1012.46
2017-11-26T11:01:44.904Z,1012.48
2017-11-26T11:02:44.877Z,1012.50
2017-11-26T11:03:44.867Z,1012.54
2017-11-26T11:04:44.834Z,1012.45
2017-11-26T11:05:44.814Z,1012.45
2017-11-26T11:06:44.793Z,1012.48
2017-11-26T11:07:44.776Z,1012.50
2017-11-26T11:08:44.755Z,1012.53
2017-11-26T11:09:44.735Z,1012.49
2017-11-26T11:10:44.714Z,1012.51
2017-11-26T11:11:44.687Z,1012.53
2017-11-26T11:12:44.669Z,1012.52
2017-11-26T11:13:44.652Z,1012.49
2017-11-26T11:14:44.642Z,1012.52
2017-11-26T11:15:44.624Z,1012.48
2017-11-26T11:16:44.579Z,1012.50
2017-11-26T11:17:44.558Z,1012.50
2017-11-26T11:18:44.535Z,1012.50
2017-11-26T11:19:44.524Z,1012.56
2017-11-26T11:20:44.492Z,1012.46
2017-11-26T11:21:44.472Z,1012.47
2017-11-26T11:22:44.461Z,1012.46
2017-11-26T11:23:44.437Z,1012.49
2017-11-26T11:24:44.416Z,1012.50
2017-11-26T11:25:44.385Z,1012.50
2017-11-26T11:26:44.369Z,1012.54
2017-11-26T11:27:44.344Z,1012.60
2017-11-26T11:28:44.334Z,1012.53
2017-11-26T11:29:44.309Z,1012.53
2017-11-26T11:30:44.285Z,1012.62
2017-11-26T11:31:44.281Z,1012.61
2017-11-26T11:32:44.248Z,1012.57
2017-11-26T11:33:44.223Z,1012.61
2017-11-26T11:34:44.216Z,1012.59
2017-11-26T11:35:44.207Z,1012.57
2017-11-26T11:36:44.152Z,1012.61
2017-11-26T11:37:44.143Z,1012.63
2017-11-26T11:38:44.113Z,1012.62
2017-11-26T11:39:44.101Z,1012.61
2017-11-26T11:40:44.076Z,1012.58
2017-11-26T11:41:44.059Z,1012.56
2017-11-26T11:42:44.032Z,1012.55
2017-11-26T11:43:44.017Z,1012.61
2017-11-26T11:44:43.999Z,1012.56
2017-11-26T11:45:43.981Z,1012.54
2017-11-26T11:46:43.944Z,1012.55
2017-11-26T11:47:43.935Z,1012.57
2017-11-26T11:48:43.910Z,1012.58
2017-11-26T11:49:43.884Z,1012.59
2017-11-26T11:50:43.861Z,1012.59
2017-11-26T11:51:43.953Z,1012.62
2017-11-26T11:52:43.821Z,1012.62
2017-11-26T11:53:43.797Z,1012.63
2017-11-26T11:54:43.781Z,1012.62
2017-11-26T11:55:43.821Z,1012.61
2017-11-26T11:56:43.751Z,1012.58
2017-11-26T11:57:43.828Z,1012.59
2017-11-26T11:58:43.704Z,1012.61
2017-11-26T11:59:43.675Z,1012.58
2017-11-26T12:00:43.658Z,1012.61
2017-11-26T12:01:43.695Z,1012.62
2017-11-26T12:02:43.622Z,1012.71
2017-11-26T12:03:43.597Z,1012.61
2017-11-26T12:04:43.583Z,1012.70